Terminal Aerodrome Forecast
Issued by NWS

Home | Current Version | Previous Version | Text Only | Print | Product List | Glossary On
Versions: 1 2 3 4 5 6 7 8 9 10 11 12 13 14 15 16 17 18 19 20 21 22 23 24 25 26 27 28 29 30
000
FTUS41 KBOX 030608 AAA
TAFFMH
TAF AMD
KFMH 030608Z 0306/0406 30006KT P6SM FEW250
     FM031800 VRB03KT P6SM SCT200
     FM032100 18007KT P6SM BKN110
     FM040200 18011KT 1SM -SN OVC020
     FM040400 18013KT 1/2SM FZRASN OVC015=

USA.gov is the U.S. government's official web portal to all federal, state and local government web resources and services.